sensor_id;sensor_type;location;lat;lon;timestamp;P1;durP1;ratioP1;P2;durP2;ratioP2
6193;SDS011;3130;41.564;23.280;2022-11-20T00:00:40;6.47;;;3.87;;
6193;SDS011;3130;41.564;23.280;2022-11-20T00:03:08;9.97;;;3.17;;
6193;SDS011;3130;41.564;23.280;2022-11-20T00:05:35;5.40;;;3.30;;
6193;SDS011;3130;41.564;23.280;2022-11-20T00:08:02;5.77;;;3.03;;
6193;SDS011;3130;41.564;23.280;2022-11-20T00:10:31;5.53;;;2.87;;
6193;SDS011;3130;41.564;23.280;2022-11-20T00:12:58;9.57;;;3.27;;
6193;SDS011;3130;41.564;23.280;2022-11-20T00:15:25;4.77;;;3.03;;
6193;SDS011;3130;41.564;23.280;2022-11-20T00:17:52;5.43;;;3.13;;
6193;SDS011;3130;41.564;23.280;2022-11-20T00:20:19;9.30;;;3.40;;
6193;SDS011;3130;41.564;23.280;2022-11-20T00:22:47;6.30;;;3.17;;
6193;SDS011;3130;41.564;23.280;2022-11-20T00:25:14;4.90;;;2.80;;
6193;SDS011;3130;41.564;23.280;2022-11-20T00:27:43;4.60;;;2.23;;
6193;SDS011;3130;41.564;23.280;2022-11-20T00:30:10;3.77;;;2.53;;
6193;SDS011;3130;41.564;23.280;2022-11-20T00:32:38;7.60;;;3.43;;
6193;SDS011;3130;41.564;23.280;2022-11-20T00:35:05;4.53;;;2.87;;
6193;SDS011;3130;41.564;23.280;2022-11-20T00:37:33;4.23;;;2.77;;
6193;SDS011;3130;41.564;23.280;2022-11-20T00:40:00;3.20;;;2.63;;
6193;SDS011;3130;41.564;23.280;2022-11-20T00:42:27;5.77;;;3.23;;
6193;SDS011;3130;41.564;23.280;2022-11-20T00:44:57;2.90;;;2.70;;
6193;SDS011;3130;41.564;23.280;2022-11-20T00:47:25;4.83;;;2.83;;
6193;SDS011;3130;41.564;23.280;2022-11-20T00:49:52;3.90;;;3.50;;
6193;SDS011;3130;41.564;23.280;2022-11-20T00:52:19;5.33;;;2.63;;
6193;SDS011;3130;41.564;23.280;2022-11-20T00:54:46;4.53;;;2.53;;
6193;SDS011;3130;41.564;23.280;2022-11-20T00:57:14;4.83;;;3.10;;
6193;SDS011;3130;41.564;23.280;2022-11-20T00:59:41;6.03;;;3.10;;
6193;SDS011;3130;41.564;23.280;2022-11-20T01:02:10;4.87;;;3.03;;
6193;SDS011;3130;41.564;23.280;2022-11-20T01:04:37;3.70;;;2.83;;
6193;SDS011;3130;41.564;23.280;2022-11-20T01:07:04;3.90;;;2.83;;
6193;SDS011;3130;41.564;23.280;2022-11-20T01:09:31;4.40;;;2.40;;
6193;SDS011;3130;41.564;23.280;2022-11-20T01:11:58;7.23;;;2.77;;
6193;SDS011;3130;41.564;23.280;2022-11-20T01:14:25;5.10;;;2.60;;
6193;SDS011;3130;41.564;23.280;2022-11-20T01:16:53;5.90;;;3.07;;
6193;SDS011;3130;41.564;23.280;2022-11-20T01:19:22;4.77;;;3.17;;
6193;SDS011;3130;41.564;23.280;2022-11-20T01:21:50;4.40;;;2.77;;
6193;SDS011;3130;41.564;23.280;2022-11-20T01:24:19;5.47;;;3.00;;
6193;SDS011;3130;41.564;23.280;2022-11-20T01:26:48;4.53;;;2.47;;
6193;SDS011;3130;41.564;23.280;2022-11-20T01:29:17;3.47;;;2.80;;
6193;SDS011;3130;41.564;23.280;2022-11-20T01:31:46;5.20;;;2.90;;
6193;SDS011;3130;41.564;23.280;2022-11-20T01:34:14;4.17;;;3.10;;
6193;SDS011;3130;41.564;23.280;2022-11-20T01:36:45;4.20;;;2.30;;
6193;SDS011;3130;41.564;23.280;2022-11-20T01:39:13;4.83;;;3.20;;
6193;SDS011;3130;41.564;23.280;2022-11-20T01:41:41;3.60;;;3.30;;
6193;SDS011;3130;41.564;23.280;2022-11-20T01:47:21;4.00;;;3.07;;
6193;SDS011;3130;41.564;23.280;2022-11-20T01:49:54;5.03;;;2.40;;
6193;SDS011;3130;41.564;23.280;2022-11-20T01:52:27;6.93;;;3.07;;
6193;SDS011;3130;41.564;23.280;2022-11-20T01:55:00;5.43;;;3.03;;
6193;SDS011;3130;41.564;23.280;2022-11-20T01:57:31;5.70;;;3.03;;
6193;SDS011;3130;41.564;23.280;2022-11-20T02:00:02;7.67;;;3.40;;
6193;SDS011;3130;41.564;23.280;2022-11-20T02:02:31;7.00;;;2.73;;
6193;SDS011;3130;41.564;23.280;2022-11-20T02:05:01;5.03;;;3.10;;
6193;SDS011;3130;41.564;23.280;2022-11-20T02:07:37;4.20;;;2.93;;
6193;SDS011;3130;41.564;23.280;2022-11-20T02:10:05;6.57;;;3.17;;
6193;SDS011;3130;41.564;23.280;2022-11-20T02:12:32;4.93;;;2.20;;
6193;SDS011;3130;41.564;23.280;2022-11-20T02:15:17;6.30;;;2.50;;
6193;SDS011;3130;41.564;23.280;2022-11-20T02:17:44;4.47;;;2.43;;
6193;SDS011;3130;41.564;23.280;2022-11-20T02:20:11;6.27;;;3.13;;
6193;SDS011;3130;41.564;23.280;2022-11-20T02:22:41;4.07;;;2.40;;
6193;SDS011;3130;41.564;23.280;2022-11-20T02:25:17;5.43;;;2.73;;
6193;SDS011;3130;41.564;23.280;2022-11-20T02:27:46;3.27;;;2.80;;
6193;SDS011;3130;41.564;23.280;2022-11-20T02:30:14;4.47;;;3.07;;
6193;SDS011;3130;41.564;23.280;2022-11-20T02:32:41;8.33;;;3.03;;
6193;SDS011;3130;41.564;23.280;2022-11-20T02:35:08;5.67;;;2.60;;
6193;SDS011;3130;41.564;23.280;2022-11-20T02:37:58;4.37;;;2.57;;
6193;SDS011;3130;41.564;23.280;2022-11-20T02:40:29;6.37;;;2.13;;
6193;SDS011;3130;41.564;23.280;2022-11-20T02:42:56;5.27;;;2.20;;
6193;SDS011;3130;41.564;23.280;2022-11-20T02:45:24;4.93;;;2.20;;
6193;SDS011;3130;41.564;23.280;2022-11-20T02:47:51;4.40;;;2.67;;
6193;SDS011;3130;41.564;23.280;2022-11-20T02:50:19;3.53;;;3.00;;
6193;SDS011;3130;41.564;23.280;2022-11-20T02:52:46;4.70;;;2.57;;
6193;SDS011;3130;41.564;23.280;2022-11-20T02:55:13;2.83;;;2.17;;
6193;SDS011;3130;41.564;23.280;2022-11-20T02:57:42;2.50;;;2.30;;
6193;SDS011;3130;41.564;23.280;2022-11-20T03:00:09;2.80;;;2.10;;
6193;SDS011;3130;41.564;23.280;2022-11-20T03:02:37;3.00;;;2.70;;
6193;SDS011;3130;41.564;23.280;2022-11-20T03:05:04;3.13;;;2.30;;
6193;SDS011;3130;41.564;23.280;2022-11-20T03:07:32;2.90;;;2.07;;
6193;SDS011;3130;41.564;23.280;2022-11-20T03:09:59;6.53;;;2.57;;
6193;SDS011;3130;41.564;23.280;2022-11-20T03:12:26;5.37;;;2.20;;
6193;SDS011;3130;41.564;23.280;2022-11-20T03:14:54;4.30;;;2.03;;
6193;SDS011;3130;41.564;23.280;2022-11-20T03:17:21;5.40;;;2.80;;
6193;SDS011;3130;41.564;23.280;2022-11-20T03:19:48;9.77;;;3.00;;
6193;SDS011;3130;41.564;23.280;2022-11-20T03:22:16;2.63;;;2.37;;
6193;SDS011;3130;41.564;23.280;2022-11-20T03:24:43;4.53;;;2.07;;
6193;SDS011;3130;41.564;23.280;2022-11-20T03:27:10;2.83;;;2.23;;
6193;SDS011;3130;41.564;23.280;2022-11-20T03:29:37;3.53;;;2.50;;
6193;SDS011;3130;41.564;23.280;2022-11-20T03:32:06;5.57;;;2.10;;
6193;SDS011;3130;41.564;23.280;2022-11-20T03:34:34;2.93;;;2.40;;
6193;SDS011;3130;41.564;23.280;2022-11-20T03:37:01;6.10;;;2.80;;
6193;SDS011;3130;41.564;23.280;2022-11-20T03:39:28;2.83;;;2.47;;
6193;SDS011;3130;41.564;23.280;2022-11-20T03:41:55;3.73;;;2.33;;
6193;SDS011;3130;41.564;23.280;2022-11-20T03:44:22;3.80;;;2.17;;
6193;SDS011;3130;41.564;23.280;2022-11-20T03:46:49;3.70;;;2.97;;
6193;SDS011;3130;41.564;23.280;2022-11-20T03:49:18;4.37;;;2.60;;
6193;SDS011;3130;41.564;23.280;2022-11-20T03:51:45;4.70;;;2.43;;
6193;SDS011;3130;41.564;23.280;2022-11-20T03:54:12;3.87;;;2.50;;
6193;SDS011;3130;41.564;23.280;2022-11-20T03:56:39;5.60;;;2.73;;
6193;SDS011;3130;41.564;23.280;2022-11-20T03:59:06;7.23;;;2.93;;
6193;SDS011;3130;41.564;23.280;2022-11-20T04:01:36;5.17;;;2.27;;
6193;SDS011;3130;41.564;23.280;2022-11-20T04:04:04;4.63;;;2.13;;
6193;SDS011;3130;41.564;23.280;2022-11-20T04:06:35;3.10;;;2.20;;
6193;SDS011;3130;41.564;23.280;2022-11-20T04:09:03;3.77;;;2.37;;
6193;SDS011;3130;41.564;23.280;2022-11-20T04:11:32;4.17;;;2.57;;
6193;SDS011;3130;41.564;23.280;2022-11-20T04:14:00;5.13;;;2.77;;
6193;SDS011;3130;41.564;23.280;2022-11-20T04:16:29;3.20;;;2.23;;
6193;SDS011;3130;41.564;23.280;2022-11-20T04:18:59;3.57;;;2.43;;
6193;SDS011;3130;41.564;23.280;2022-11-20T04:21:27;4.73;;;2.83;;
6193;SDS011;3130;41.564;23.280;2022-11-20T04:23:56;4.27;;;2.90;;
6193;SDS011;3130;41.564;23.280;2022-11-20T04:26:23;4.37;;;2.70;;
6193;SDS011;3130;41.564;23.280;2022-11-20T04:28:52;4.70;;;2.30;;
6193;SDS011;3130;41.564;23.280;2022-11-20T04:31:20;4.60;;;2.53;;
6193;SDS011;3130;41.564;23.280;2022-11-20T04:33:49;6.30;;;2.63;;
6193;SDS011;3130;41.564;23.280;2022-11-20T04:36:16;4.63;;;3.03;;
6193;SDS011;3130;41.564;23.280;2022-11-20T04:38:45;5.20;;;2.77;;
6193;SDS011;3130;41.564;23.280;2022-11-20T04:41:15;6.17;;;3.00;;
6193;SDS011;3130;41.564;23.280;2022-11-20T04:43:45;5.23;;;2.60;;
6193;SDS011;3130;41.564;23.280;2022-11-20T04:46:14;8.03;;;2.63;;
6193;SDS011;3130;41.564;23.280;2022-11-20T04:48:41;6.30;;;2.47;;
6193;SDS011;3130;41.564;23.280;2022-11-20T04:51:08;5.30;;;2.93;;
6193;SDS011;3130;41.564;23.280;2022-11-20T04:53:35;7.83;;;3.27;;
6193;SDS011;3130;41.564;23.280;2022-11-20T04:56:04;7.40;;;3.60;;
6193;SDS011;3130;41.564;23.280;2022-11-20T04:58:34;8.20;;;3.53;;
6193;SDS011;3130;41.564;23.280;2022-11-20T05:01:02;6.53;;;3.63;;
6193;SDS011;3130;41.564;23.280;2022-11-20T05:03:30;9.23;;;4.33;;
6193;SDS011;3130;41.564;23.280;2022-11-20T05:05:59;4.63;;;2.87;;
6193;SDS011;3130;41.564;23.280;2022-11-20T05:08:27;5.37;;;3.60;;
6193;SDS011;3130;41.564;23.280;2022-11-20T05:10:59;10.67;;;3.63;;
6193;SDS011;3130;41.564;23.280;2022-11-20T05:13:27;4.67;;;3.23;;
6193;SDS011;3130;41.564;23.280;2022-11-20T05:15:59;5.80;;;3.33;;
6193;SDS011;3130;41.564;23.280;2022-11-20T05:18:28;11.20;;;3.33;;
6193;SDS011;3130;41.564;23.280;2022-11-20T05:20:55;5.97;;;2.83;;
6193;SDS011;3130;41.564;23.280;2022-11-20T05:23:23;5.07;;;3.07;;
6193;SDS011;3130;41.564;23.280;2022-11-20T05:25:51;5.67;;;3.90;;
6193;SDS011;3130;41.564;23.280;2022-11-20T05:28:19;4.40;;;2.97;;
6193;SDS011;3130;41.564;23.280;2022-11-20T05:30:47;8.73;;;3.43;;
6193;SDS011;3130;41.564;23.280;2022-11-20T05:33:16;8.53;;;3.67;;
6193;SDS011;3130;41.564;23.280;2022-11-20T05:35:44;5.70;;;3.57;;
6193;SDS011;3130;41.564;23.280;2022-11-20T05:38:11;6.10;;;4.80;;
6193;SDS011;3130;41.564;23.280;2022-11-20T05:40:39;7.10;;;2.73;;
6193;SDS011;3130;41.564;23.280;2022-11-20T05:43:07;7.37;;;3.97;;
6193;SDS011;3130;41.564;23.280;2022-11-20T05:45:34;4.07;;;2.97;;
6193;SDS011;3130;41.564;23.280;2022-11-20T05:48:01;4.63;;;3.53;;
6193;SDS011;3130;41.564;23.280;2022-11-20T05:50:30;5.73;;;3.50;;
6193;SDS011;3130;41.564;23.280;2022-11-20T05:52:58;5.40;;;2.40;;
6193;SDS011;3130;41.564;23.280;2022-11-20T05:55:26;5.43;;;2.90;;
6193;SDS011;3130;41.564;23.280;2022-11-20T05:57:54;10.10;;;3.07;;
6193;SDS011;3130;41.564;23.280;2022-11-20T06:00:22;6.90;;;2.67;;
6193;SDS011;3130;41.564;23.280;2022-11-20T06:02:49;7.70;;;2.50;;
6193;SDS011;3130;41.564;23.280;2022-11-20T06:05:17;5.27;;;2.97;;
6193;SDS011;3130;41.564;23.280;2022-11-20T06:07:46;5.13;;;2.83;;
6193;SDS011;3130;41.564;23.280;2022-11-20T06:10:13;4.80;;;2.50;;
6193;SDS011;3130;41.564;23.280;2022-11-20T06:12:41;3.63;;;2.70;;
6193;SDS011;3130;41.564;23.280;2022-11-20T06:15:08;5.90;;;2.87;;
6193;SDS011;3130;41.564;23.280;2022-11-20T06:17:36;6.20;;;3.00;;
6193;SDS011;3130;41.564;23.280;2022-11-20T06:20:03;6.17;;;3.10;;
6193;SDS011;3130;41.564;23.280;2022-11-20T06:22:31;5.07;;;3.13;;
6193;SDS011;3130;41.564;23.280;2022-11-20T06:25:00;11.23;;;6.07;;
6193;SDS011;3130;41.564;23.280;2022-11-20T06:27:28;10.27;;;5.27;;
6193;SDS011;3130;41.564;23.280;2022-11-20T06:29:59;5.17;;;3.57;;
6193;SDS011;3130;41.564;23.280;2022-11-20T06:32:35;4.60;;;2.87;;
6193;SDS011;3130;41.564;23.280;2022-11-20T06:35:02;5.20;;;3.47;;
6193;SDS011;3130;41.564;23.280;2022-11-20T06:37:30;5.97;;;3.50;;
6193;SDS011;3130;41.564;23.280;2022-11-20T06:39:58;7.67;;;5.37;;
6193;SDS011;3130;41.564;23.280;2022-11-20T06:42:26;9.70;;;4.47;;
6193;SDS011;3130;41.564;23.280;2022-11-20T06:44:53;9.93;;;4.07;;
6193;SDS011;3130;41.564;23.280;2022-11-20T06:47:21;6.97;;;4.17;;
6193;SDS011;3130;41.564;23.280;2022-11-20T06:49:48;7.10;;;3.90;;
6193;SDS011;3130;41.564;23.280;2022-11-20T06:52:15;10.17;;;5.23;;
6193;SDS011;3130;41.564;23.280;2022-11-20T06:54:42;6.90;;;3.00;;
6193;SDS011;3130;41.564;23.280;2022-11-20T06:57:09;7.57;;;3.40;;
6193;SDS011;3130;41.564;23.280;2022-11-20T06:59:37;5.77;;;3.10;;
6193;SDS011;3130;41.564;23.280;2022-11-20T07:02:04;7.07;;;4.53;;
6193;SDS011;3130;41.564;23.280;2022-11-20T07:04:31;6.20;;;4.23;;
6193;SDS011;3130;41.564;23.280;2022-11-20T07:06:58;12.97;;;3.93;;
6193;SDS011;3130;41.564;23.280;2022-11-20T07:09:26;6.00;;;3.50;;
6193;SDS011;3130;41.564;23.280;2022-11-20T07:11:53;6.20;;;4.07;;
6193;SDS011;3130;41.564;23.280;2022-11-20T07:14:20;11.30;;;4.13;;
6193;SDS011;3130;41.564;23.280;2022-11-20T07:16:48;9.63;;;3.43;;
6193;SDS011;3130;41.564;23.280;2022-11-20T07:19:15;7.07;;;3.63;;
6193;SDS011;3130;41.564;23.280;2022-11-20T07:21:42;9.47;;;4.30;;
6193;SDS011;3130;41.564;23.280;2022-11-20T07:24:09;10.43;;;4.50;;
6193;SDS011;3130;41.564;23.280;2022-11-20T07:26:37;16.23;;;5.60;;
6193;SDS011;3130;41.564;23.280;2022-11-20T07:29:04;8.57;;;4.23;;
6193;SDS011;3130;41.564;23.280;2022-11-20T07:31:31;6.90;;;3.63;;
6193;SDS011;3130;41.564;23.280;2022-11-20T07:33:59;11.43;;;3.97;;
6193;SDS011;3130;41.564;23.280;2022-11-20T07:36:27;6.53;;;4.20;;
6193;SDS011;3130;41.564;23.280;2022-11-20T07:38:54;7.43;;;3.93;;
6193;SDS011;3130;41.564;23.280;2022-11-20T07:41:21;12.53;;;4.70;;
6193;SDS011;3130;41.564;23.280;2022-11-20T07:43:48;6.83;;;3.80;;
6193;SDS011;3130;41.564;23.280;2022-11-20T07:46:15;10.83;;;4.70;;
6193;SDS011;3130;41.564;23.280;2022-11-20T07:48:42;9.60;;;4.17;;
6193;SDS011;3130;41.564;23.280;2022-11-20T07:51:10;12.57;;;5.87;;
6193;SDS011;3130;41.564;23.280;2022-11-20T07:53:38;10.03;;;5.40;;
6193;SDS011;3130;41.564;23.280;2022-11-20T07:56:06;9.80;;;4.97;;
6193;SDS011;3130;41.564;23.280;2022-11-20T07:58:33;15.47;;;5.87;;
6193;SDS011;3130;41.564;23.280;2022-11-20T08:01:02;7.47;;;5.77;;
6193;SDS011;3130;41.564;23.280;2022-11-20T08:03:30;14.37;;;6.97;;
6193;SDS011;3130;41.564;23.280;2022-11-20T08:05:58;12.03;;;6.67;;
6193;SDS011;3130;41.564;23.280;2022-11-20T08:08:27;8.60;;;4.47;;
6193;SDS011;3130;41.564;23.280;2022-11-20T08:10:56;13.17;;;5.23;;
6193;SDS011;3130;41.564;23.280;2022-11-20T08:13:43;12.47;;;5.03;;
6193;SDS011;3130;41.564;23.280;2022-11-20T08:16:27;9.50;;;4.03;;
6193;SDS011;3130;41.564;23.280;2022-11-20T08:18:54;14.10;;;5.17;;
6193;SDS011;3130;41.564;23.280;2022-11-20T08:21:22;11.93;;;6.77;;
6193;SDS011;3130;41.564;23.280;2022-11-20T08:23:51;13.87;;;7.07;;
6193;SDS011;3130;41.564;23.280;2022-11-20T08:26:18;14.60;;;6.77;;
6193;SDS011;3130;41.564;23.280;2022-11-20T08:28:45;12.13;;;5.50;;
6193;SDS011;3130;41.564;23.280;2022-11-20T08:31:12;13.07;;;6.53;;
6193;SDS011;3130;41.564;23.280;2022-11-20T08:33:39;14.73;;;6.40;;
6193;SDS011;3130;41.564;23.280;2022-11-20T08:36:06;13.93;;;6.60;;
6193;SDS011;3130;41.564;23.280;2022-11-20T08:38:34;14.17;;;6.60;;
6193;SDS011;3130;41.564;23.280;2022-11-20T08:41:03;13.80;;;7.33;;
6193;SDS011;3130;41.564;23.280;2022-11-20T08:43:48;14.80;;;6.70;;
6193;SDS011;3130;41.564;23.280;2022-11-20T08:46:16;16.50;;;7.77;;
6193;SDS011;3130;41.564;23.280;2022-11-20T08:48:43;13.70;;;7.17;;
6193;SDS011;3130;41.564;23.280;2022-11-20T08:51:11;14.73;;;7.47;;
6193;SDS011;3130;41.564;23.280;2022-11-20T08:53:38;15.53;;;7.20;;
6193;SDS011;3130;41.564;23.280;2022-11-20T08:56:07;10.33;;;6.23;;
6193;SDS011;3130;41.564;23.280;2022-11-20T08:58:36;8.83;;;5.27;;
6193;SDS011;3130;41.564;23.280;2022-11-20T09:01:03;10.97;;;5.07;;
6193;SDS011;3130;41.564;23.280;2022-11-20T09:03:31;11.87;;;4.73;;
6193;SDS011;3130;41.564;23.280;2022-11-20T09:05:58;13.13;;;6.43;;
6193;SDS011;3130;41.564;23.280;2022-11-20T09:08:26;11.93;;;5.60;;
6193;SDS011;3130;41.564;23.280;2022-11-20T09:10:54;12.80;;;7.07;;
6193;SDS011;3130;41.564;23.280;2022-11-20T09:13:25;12.47;;;6.87;;
6193;SDS011;3130;41.564;23.280;2022-11-20T09:15:53;17.73;;;7.00;;
6193;SDS011;3130;41.564;23.280;2022-11-20T09:18:21;10.00;;;5.40;;
6193;SDS011;3130;41.564;23.280;2022-11-20T09:20:48;11.87;;;5.80;;
6193;SDS011;3130;41.564;23.280;2022-11-20T09:23:15;10.73;;;5.27;;
6193;SDS011;3130;41.564;23.280;2022-11-20T09:25:43;11.67;;;6.20;;
6193;SDS011;3130;41.564;23.280;2022-11-20T09:28:10;15.73;;;6.23;;
6193;SDS011;3130;41.564;23.280;2022-11-20T09:30:39;20.57;;;8.20;;
6193;SDS011;3130;41.564;23.280;2022-11-20T09:33:06;11.50;;;6.50;;
6193;SDS011;3130;41.564;23.280;2022-11-20T09:35:33;11.80;;;4.53;;
6193;SDS011;3130;41.564;23.280;2022-11-20T09:38:06;13.17;;;6.73;;
6193;SDS011;3130;41.564;23.280;2022-11-20T09:40:36;12.80;;;5.33;;
6193;SDS011;3130;41.564;23.280;2022-11-20T09:43:07;19.50;;;6.27;;
6193;SDS011;3130;41.564;23.280;2022-11-20T09:45:48;15.10;;;4.97;;
6193;SDS011;3130;41.564;23.280;2022-11-20T09:51:34;34.27;;;13.93;;
6193;SDS011;3130;41.564;23.280;2022-11-20T09:54:14;28.30;;;14.30;;
6193;SDS011;3130;41.564;23.280;2022-11-20T09:56:43;16.57;;;9.40;;
6193;SDS011;3130;41.564;23.280;2022-11-20T09:59:18;17.20;;;5.63;;
6193;SDS011;3130;41.564;23.280;2022-11-20T10:01:57;17.83;;;6.17;;
6193;SDS011;3130;41.564;23.280;2022-11-20T10:04:25;11.93;;;5.67;;
6193;SDS011;3130;41.564;23.280;2022-11-20T10:06:56;17.30;;;6.93;;
6193;SDS011;3130;41.564;23.280;2022-11-20T10:09:31;25.80;;;7.13;;
6193;SDS011;3130;41.564;23.280;2022-11-20T10:12:09;12.93;;;5.43;;
6193;SDS011;3130;41.564;23.280;2022-11-20T10:14:48;12.93;;;5.90;;
6193;SDS011;3130;41.564;23.280;2022-11-20T10:17:26;14.97;;;7.17;;
6193;SDS011;3130;41.564;23.280;2022-11-20T10:20:10;14.00;;;6.33;;
6193;SDS011;3130;41.564;23.280;2022-11-20T10:22:53;18.93;;;6.63;;
6193;SDS011;3130;41.564;23.280;2022-11-20T10:25:49;15.43;;;6.37;;
6193;SDS011;3130;41.564;23.280;2022-11-20T10:28:24;13.53;;;5.83;;
6193;SDS011;3130;41.564;23.280;2022-11-20T10:31:02;10.80;;;4.17;;
6193;SDS011;3130;41.564;23.280;2022-11-20T10:33:33;9.47;;;5.43;;
6193;SDS011;3130;41.564;23.280;2022-11-20T10:36:06;19.67;;;5.47;;
6193;SDS011;3130;41.564;23.280;2022-11-20T10:38:38;13.90;;;5.80;;
6193;SDS011;3130;41.564;23.280;2022-11-20T10:41:10;17.70;;;7.23;;
6193;SDS011;3130;41.564;23.280;2022-11-20T10:43:54;17.93;;;6.17;;
6193;SDS011;3130;41.564;23.280;2022-11-20T10:46:30;16.60;;;5.87;;
6193;SDS011;3130;41.564;23.280;2022-11-20T10:49:09;14.40;;;5.17;;
6193;SDS011;3130;41.564;23.280;2022-11-20T10:51:40;14.37;;;5.70;;
6193;SDS011;3130;41.564;23.280;2022-11-20T10:54:18;32.97;;;14.57;;
6193;SDS011;3130;41.564;23.280;2022-11-20T10:56:54;13.27;;;6.90;;
6193;SDS011;3130;41.564;23.280;2022-11-20T11:02:22;18.13;;;4.20;;
6193;SDS011;3130;41.564;23.280;2022-11-20T11:04:52;11.23;;;3.73;;
6193;SDS011;3130;41.564;23.280;2022-11-20T11:07:21;8.50;;;4.00;;
6193;SDS011;3130;41.564;23.280;2022-11-20T11:09:52;15.67;;;4.53;;
6193;SDS011;3130;41.564;23.280;2022-11-20T11:12:21;15.07;;;8.97;;
6193;SDS011;3130;41.564;23.280;2022-11-20T11:14:51;26.90;;;10.70;;
6193;SDS011;3130;41.564;23.280;2022-11-20T11:17:20;23.37;;;11.60;;
6193;SDS011;3130;41.564;23.280;2022-11-20T11:20:06;16.80;;;7.97;;
6193;SDS011;3130;41.564;23.280;2022-11-20T11:22:43;13.80;;;8.97;;
6193;SDS011;3130;41.564;23.280;2022-11-20T11:25:18;20.90;;;10.57;;
6193;SDS011;3130;41.564;23.280;2022-11-20T11:27:47;18.80;;;7.57;;
6193;SDS011;3130;41.564;23.280;2022-11-20T11:30:16;16.37;;;8.33;;
6193;SDS011;3130;41.564;23.280;2022-11-20T11:32:44;22.23;;;10.57;;
6193;SDS011;3130;41.564;23.280;2022-11-20T11:35:23;31.83;;;12.13;;
6193;SDS011;3130;41.564;23.280;2022-11-20T11:37:53;20.87;;;13.73;;
6193;SDS011;3130;41.564;23.280;2022-11-20T11:40:30;29.83;;;15.17;;
6193;SDS011;3130;41.564;23.280;2022-11-20T11:42:59;28.67;;;13.63;;
6193;SDS011;3130;41.564;23.280;2022-11-20T11:45:51;21.23;;;9.83;;
6193;SDS011;3130;41.564;23.280;2022-11-20T11:48:19;25.67;;;12.50;;
6193;SDS011;3130;41.564;23.280;2022-11-20T11:50:49;22.10;;;11.23;;
6193;SDS011;3130;41.564;23.280;2022-11-20T11:53:17;22.43;;;11.17;;
6193;SDS011;3130;41.564;23.280;2022-11-20T11:55:47;19.33;;;8.77;;
6193;SDS011;3130;41.564;23.280;2022-11-20T11:58:28;14.23;;;6.57;;
6193;SDS011;3130;41.564;23.280;2022-11-20T12:01:17;12.03;;;5.97;;
6193;SDS011;3130;41.564;23.280;2022-11-20T12:03:59;16.90;;;6.37;;
6193;SDS011;3130;41.564;23.280;2022-11-20T12:06:32;9.80;;;5.50;;
6193;SDS011;3130;41.564;23.280;2022-11-20T12:09:04;19.60;;;6.60;;
6193;SDS011;3130;41.564;23.280;2022-11-20T12:11:35;13.23;;;5.63;;
6193;SDS011;3130;41.564;23.280;2022-11-20T12:14:11;13.67;;;6.27;;
6193;SDS011;3130;41.564;23.280;2022-11-20T12:16:44;10.37;;;5.80;;
6193;SDS011;3130;41.564;23.280;2022-11-20T12:19:12;8.77;;;4.80;;
6193;SDS011;3130;41.564;23.280;2022-11-20T12:21:45;10.50;;;4.57;;
6193;SDS011;3130;41.564;23.280;2022-11-20T12:24:31;14.87;;;5.53;;
6193;SDS011;3130;41.564;23.280;2022-11-20T12:27:20;11.37;;;6.40;;
6193;SDS011;3130;41.564;23.280;2022-11-20T12:30:14;13.77;;;6.13;;
6193;SDS011;3130;41.564;23.280;2022-11-20T12:32:51;14.53;;;5.50;;
6193;SDS011;3130;41.564;23.280;2022-11-20T12:35:47;12.20;;;5.60;;
6193;SDS011;3130;41.564;23.280;2022-11-20T12:38:39;11.70;;;6.10;;
6193;SDS011;3130;41.564;23.280;2022-11-20T12:41:19;14.70;;;5.17;;
6193;SDS011;3130;41.564;23.280;2022-11-20T12:44:17;7.03;;;4.00;;
6193;SDS011;3130;41.564;23.280;2022-11-20T12:47:11;10.53;;;5.37;;
6193;SDS011;3130;41.564;23.280;2022-11-20T12:49:47;12.40;;;5.63;;
6193;SDS011;3130;41.564;23.280;2022-11-20T12:52:26;15.90;;;5.57;;
6193;SDS011;3130;41.564;23.280;2022-11-20T12:55:11;13.00;;;4.70;;
6193;SDS011;3130;41.564;23.280;2022-11-20T12:57:45;12.03;;;3.83;;
6193;SDS011;3130;41.564;23.280;2022-11-20T13:00:17;11.33;;;5.13;;
6193;SDS011;3130;41.564;23.280;2022-11-20T13:05:50;11.03;;;4.57;;
6193;SDS011;3130;41.564;23.280;2022-11-20T13:08:22;13.93;;;4.67;;
6193;SDS011;3130;41.564;23.280;2022-11-20T13:10:54;11.00;;;5.03;;
6193;SDS011;3130;41.564;23.280;2022-11-20T13:13:29;10.10;;;6.10;;
6193;SDS011;3130;41.564;23.280;2022-11-20T13:16:04;11.13;;;5.50;;
6193;SDS011;3130;41.564;23.280;2022-11-20T13:18:36;15.30;;;7.90;;
6193;SDS011;3130;41.564;23.280;2022-11-20T13:21:17;12.40;;;4.43;;
6193;SDS011;3130;41.564;23.280;2022-11-20T13:23:45;10.50;;;5.10;;
6193;SDS011;3130;41.564;23.280;2022-11-20T13:26:17;8.67;;;4.97;;
6193;SDS011;3130;41.564;23.280;2022-11-20T13:28:47;12.20;;;4.43;;
6193;SDS011;3130;41.564;23.280;2022-11-20T13:31:30;10.63;;;5.37;;
6193;SDS011;3130;41.564;23.280;2022-11-20T13:33:59;6.83;;;4.80;;
6193;SDS011;3130;41.564;23.280;2022-11-20T13:36:28;8.40;;;5.47;;
6193;SDS011;3130;41.564;23.280;2022-11-20T13:38:57;10.80;;;3.93;;
6193;SDS011;3130;41.564;23.280;2022-11-20T13:41:27;7.60;;;5.30;;
6193;SDS011;3130;41.564;23.280;2022-11-20T13:44:04;13.50;;;5.40;;
6193;SDS011;3130;41.564;23.280;2022-11-20T13:46:36;9.67;;;4.97;;
6193;SDS011;3130;41.564;23.280;2022-11-20T13:49:08;11.67;;;4.77;;
6193;SDS011;3130;41.564;23.280;2022-11-20T13:51:40;12.27;;;4.77;;
6193;SDS011;3130;41.564;23.280;2022-11-20T13:54:14;10.20;;;4.47;;
6193;SDS011;3130;41.564;23.280;2022-11-20T13:57:23;12.57;;;4.70;;
6193;SDS011;3130;41.564;23.280;2022-11-20T14:00:02;14.23;;;5.27;;
6193;SDS011;3130;41.564;23.280;2022-11-20T14:02:37;12.63;;;6.20;;
6193;SDS011;3130;41.564;23.280;2022-11-20T14:05:04;18.90;;;10.60;;
6193;SDS011;3130;41.564;23.280;2022-11-20T14:07:34;19.63;;;7.20;;
6193;SDS011;3130;41.564;23.280;2022-11-20T14:10:04;26.27;;;20.07;;
6193;SDS011;3130;41.564;23.280;2022-11-20T14:12:33;14.97;;;5.87;;
6193;SDS011;3130;41.564;23.280;2022-11-20T14:15:02;13.47;;;5.73;;
6193;SDS011;3130;41.564;23.280;2022-11-20T14:17:30;13.70;;;5.50;;
6193;SDS011;3130;41.564;23.280;2022-11-20T14:19:58;16.73;;;6.20;;
6193;SDS011;3130;41.564;23.280;2022-11-20T14:22:28;14.73;;;5.63;;
6193;SDS011;3130;41.564;23.280;2022-11-20T14:25:03;11.57;;;5.63;;
6193;SDS011;3130;41.564;23.280;2022-11-20T14:27:35;15.53;;;5.93;;
6193;SDS011;3130;41.564;23.280;2022-11-20T14:30:04;12.10;;;5.33;;
6193;SDS011;3130;41.564;23.280;2022-11-20T14:32:33;11.33;;;4.63;;
6193;SDS011;3130;41.564;23.280;2022-11-20T14:35:06;9.77;;;5.00;;
6193;SDS011;3130;41.564;23.280;2022-11-20T14:37:36;16.83;;;5.33;;
6193;SDS011;3130;41.564;23.280;2022-11-20T14:40:14;16.17;;;5.83;;
6193;SDS011;3130;41.564;23.280;2022-11-20T14:42:51;16.03;;;5.30;;
6193;SDS011;3130;41.564;23.280;2022-11-20T14:45:18;18.63;;;5.87;;
6193;SDS011;3130;41.564;23.280;2022-11-20T14:47:46;10.63;;;4.03;;
6193;SDS011;3130;41.564;23.280;2022-11-20T14:50:16;13.13;;;3.80;;
6193;SDS011;3130;41.564;23.280;2022-11-20T14:52:52;11.87;;;5.67;;
6193;SDS011;3130;41.564;23.280;2022-11-20T14:55:31;12.37;;;4.83;;
6193;SDS011;3130;41.564;23.280;2022-11-20T14:58:02;11.13;;;5.10;;
6193;SDS011;3130;41.564;23.280;2022-11-20T15:00:32;13.97;;;4.13;;
6193;SDS011;3130;41.564;23.280;2022-11-20T15:03:00;15.57;;;4.50;;
6193;SDS011;3130;41.564;23.280;2022-11-20T15:05:44;12.53;;;4.53;;
6193;SDS011;3130;41.564;23.280;2022-11-20T15:08:13;11.13;;;4.73;;
6193;SDS011;3130;41.564;23.280;2022-11-20T15:10:44;15.23;;;6.67;;
6193;SDS011;3130;41.564;23.280;2022-11-20T15:13:15;14.97;;;5.90;;
6193;SDS011;3130;41.564;23.280;2022-11-20T15:15:52;10.90;;;6.00;;
6193;SDS011;3130;41.564;23.280;2022-11-20T15:18:22;12.17;;;6.50;;
6193;SDS011;3130;41.564;23.280;2022-11-20T15:20:50;18.40;;;5.97;;
6193;SDS011;3130;41.564;23.280;2022-11-20T15:23:18;15.80;;;5.57;;
6193;SDS011;3130;41.564;23.280;2022-11-20T15:25:46;15.80;;;6.67;;
6193;SDS011;3130;41.564;23.280;2022-11-20T15:28:17;21.00;;;6.07;;